Chepachet, Rhode Island
Current Conditions -  °F | °C
As of 6:15 AM on Friday 28 Nov 2014 (Local Time) from KSFZ Reporting Station
Overcast Overcast  
Wind Chill: 19°   Ceiling: 2700
Heat Index: 28°   Visibility: 9mi
Dew Point: 21°   Wind: 10mph
Humidity: 74%   Direction: 340°NNW
Pressure: 29.99"   Gusts: 16mph
Location:  41.91°N, 71.67°W
Report Text: KSFZ 281115Z 34009G14KT 9SM OVC027 M02/M06 A2999 RMK AO1
Loading
Personal Weather Stations






























Interactive Weather Map New forecast layout! Learn more

10-Day Weather Forecast

Advertisements
Track Severe Weather on mobile